sensor_id;sensor_type;location;lat;lon;timestamp;pressure;altitude;pressure_sealevel;temperature;humidity
51617;BME280;37697;52.588;13.394;2023-02-04T00:02:18;101711.30;;;2.16;86.30
51617;BME280;37697;52.588;13.394;2023-02-04T00:07:20;101728.25;;;2.07;86.73
51617;BME280;37697;52.588;13.394;2023-02-04T00:12:23;101740.34;;;2.00;87.02
51617;BME280;37697;52.588;13.394;2023-02-04T00:17:26;101758.62;;;1.94;87.17
51617;BME280;37697;52.588;13.394;2023-02-04T00:22:29;101773.51;;;1.92;87.51
51617;BME280;37697;52.588;13.394;2023-02-04T00:27:31;101792.32;;;1.91;87.54
51617;BME280;37697;52.588;13.394;2023-02-04T00:32:34;101808.20;;;1.85;87.46
51617;BME280;37697;52.588;13.394;2023-02-04T00:37:36;101835.13;;;1.75;87.56
51617;BME280;37697;52.588;13.394;2023-02-04T00:42:39;101860.05;;;1.65;87.50
51617;BME280;37697;52.588;13.394;2023-02-04T00:47:42;101888.02;;;1.58;87.71
51617;BME280;37697;52.588;13.394;2023-02-04T00:52:45;101908.72;;;1.52;87.64
51617;BME280;37697;52.588;13.394;2023-02-04T00:57:48;101929.86;;;1.40;87.54
51617;BME280;37697;52.588;13.394;2023-02-04T01:02:51;101950.77;;;1.28;87.54
51617;BME280;37697;52.588;13.394;2023-02-04T01:07:53;101970.23;;;1.21;87.64
51617;BME280;37697;52.588;13.394;2023-02-04T01:12:56;101983.19;;;1.17;87.62
51617;BME280;37697;52.588;13.394;2023-02-04T01:17:59;101994.45;;;1.12;87.71
51617;BME280;37697;52.588;13.394;2023-02-04T01:23:02;102008.70;;;1.08;87.80
51617;BME280;37697;52.588;13.394;2023-02-04T01:28:04;102023.85;;;1.06;87.80
51617;BME280;37697;52.588;13.394;2023-02-04T01:33:07;102044.34;;;1.00;87.93
51617;BME280;37697;52.588;13.394;2023-02-04T01:38:10;102064.14;;;0.94;87.91
51617;BME280;37697;52.588;13.394;2023-02-04T01:43:13;102075.08;;;0.87;87.91
51617;BME280;37697;52.588;13.394;2023-02-04T01:48:18;102081.83;;;0.80;87.85
51617;BME280;37697;52.588;13.394;2023-02-04T01:53:24;102099.59;;;0.74;87.82
51617;BME280;37697;52.588;13.394;2023-02-04T01:58:29;102120.38;;;0.68;87.84
51617;BME280;37697;52.588;13.394;2023-02-04T02:03:33;102142.11;;;0.63;87.75
51617;BME280;37697;52.588;13.394;2023-02-04T02:08:36;102155.94;;;0.61;87.81
51617;BME280;37697;52.588;13.394;2023-02-04T02:13:39;102171.25;;;0.60;87.84
51617;BME280;37697;52.588;13.394;2023-02-04T02:18:41;102181.02;;;0.54;87.76
51617;BME280;37697;52.588;13.394;2023-02-04T02:23:46;102194.95;;;0.51;87.86
51617;BME280;37697;52.588;13.394;2023-02-04T02:28:49;102207.70;;;0.48;87.61
51617;BME280;37697;52.588;13.394;2023-02-04T02:33:52;102222.89;;;0.45;87.79
51617;BME280;37697;52.588;13.394;2023-02-04T02:38:55;102228.42;;;0.41;87.74
51617;BME280;37697;52.588;13.394;2023-02-04T02:43:58;102240.80;;;0.37;87.81
51617;BME280;37697;52.588;13.394;2023-02-04T02:49:00;102250.29;;;0.32;87.46
51617;BME280;37697;52.588;13.394;2023-02-04T02:54:03;102256.20;;;0.25;87.49
51617;BME280;37697;52.588;13.394;2023-02-04T02:59:16;102264.64;;;0.16;87.54
51617;BME280;37697;52.588;13.394;2023-02-04T03:04:20;102277.17;;;0.09;87.44
51617;BME280;37697;52.588;13.394;2023-02-04T03:09:24;102294.02;;;0.00;87.49
51617;BME280;37697;52.588;13.394;2023-02-04T03:14:28;102306.11;;;-0.09;87.75
51617;BME280;37697;52.588;13.394;2023-02-04T03:19:31;102324.73;;;-0.12;88.05
51617;BME280;37697;52.588;13.394;2023-02-04T03:24:35;102328.52;;;-0.13;88.22
51617;BME280;37697;52.588;13.394;2023-02-04T03:29:43;102350.29;;;-0.15;88.33
51617;BME280;37697;52.588;13.394;2023-02-04T03:34:46;102363.84;;;-0.18;88.29
51617;BME280;37697;52.588;13.394;2023-02-04T03:39:49;102377.29;;;-0.23;88.18
51617;BME280;37697;52.588;13.394;2023-02-04T03:44:51;102392.27;;;-0.28;88.40
51617;BME280;37697;52.588;13.394;2023-02-04T03:49:54;102422.38;;;-0.29;88.31
51617;BME280;37697;52.588;13.394;2023-02-04T03:54:57;102439.48;;;-0.31;88.49
51617;BME280;37697;52.588;13.394;2023-02-04T03:59:59;102453.86;;;-0.33;88.55
51617;BME280;37697;52.588;13.394;2023-02-04T04:05:02;102461.11;;;-0.30;88.96
51617;BME280;37697;52.588;13.394;2023-02-04T04:10:05;102476.34;;;-0.27;89.11
51617;BME280;37697;52.588;13.394;2023-02-04T04:15:09;102481.63;;;-0.25;89.26
51617;BME280;37697;52.588;13.394;2023-02-04T04:20:12;102492.63;;;-0.22;89.34
51617;BME280;37697;52.588;13.394;2023-02-04T04:25:15;102503.61;;;-0.20;89.39
51617;BME280;37697;52.588;13.394;2023-02-04T04:30:18;102515.18;;;-0.20;89.49
51617;BME280;37697;52.588;13.394;2023-02-04T04:35:20;102529.22;;;-0.21;89.35
51617;BME280;37697;52.588;13.394;2023-02-04T04:40:23;102547.09;;;-0.24;89.41
51617;BME280;37697;52.588;13.394;2023-02-04T04:45:26;102559.59;;;-0.28;89.49
51617;BME280;37697;52.588;13.394;2023-02-04T04:50:29;102578.21;;;-0.32;89.49
51617;BME280;37697;52.588;13.394;2023-02-04T04:55:32;102585.55;;;-0.38;89.42
51617;BME280;37697;52.588;13.394;2023-02-04T05:00:35;102600.36;;;-0.42;89.43
51617;BME280;37697;52.588;13.394;2023-02-04T05:05:38;102613.80;;;-0.48;89.45
51617;BME280;37697;52.588;13.394;2023-02-04T05:10:43;102623.08;;;-0.51;89.82
51617;BME280;37697;52.588;13.394;2023-02-04T05:15:46;102627.77;;;-0.53;89.70
51617;BME280;37697;52.588;13.394;2023-02-04T05:20:49;102634.68;;;-0.56;89.71
51617;BME280;37697;52.588;13.394;2023-02-04T05:25:52;102645.19;;;-0.58;89.71
51617;BME280;37697;52.588;13.394;2023-02-04T05:30:54;102657.83;;;-0.60;89.56
51617;BME280;37697;52.588;13.394;2023-02-04T05:35:57;102674.81;;;-0.65;89.71
51617;BME280;37697;52.588;13.394;2023-02-04T05:41:00;102687.60;;;-0.69;89.69
51617;BME280;37697;52.588;13.394;2023-02-04T05:46:03;102699.81;;;-0.73;89.59
51617;BME280;37697;52.588;13.394;2023-02-04T05:51:06;102712.42;;;-0.78;89.58
51617;BME280;37697;52.588;13.394;2023-02-04T05:56:09;102724.02;;;-0.83;89.38
51617;BME280;37697;52.588;13.394;2023-02-04T06:01:11;102730.53;;;-0.86;89.50
51617;BME280;37697;52.588;13.394;2023-02-04T06:06:14;102737.40;;;-0.91;89.46
51617;BME280;37697;52.588;13.394;2023-02-04T06:11:17;102753.25;;;-0.95;89.58
51617;BME280;37697;52.588;13.394;2023-02-04T06:16:19;102768.80;;;-0.97;89.50
51617;BME280;37697;52.588;13.394;2023-02-04T06:21:23;102779.59;;;-1.02;89.37
51617;BME280;37697;52.588;13.394;2023-02-04T06:26:26;102788.06;;;-1.06;89.20
51617;BME280;37697;52.588;13.394;2023-02-04T06:31:29;102793.71;;;-1.12;89.20
51617;BME280;37697;52.588;13.394;2023-02-04T06:36:32;102805.95;;;-1.20;89.11
51617;BME280;37697;52.588;13.394;2023-02-04T06:41:35;102818.85;;;-1.25;89.23
51617;BME280;37697;52.588;13.394;2023-02-04T06:46:38;102817.98;;;-1.27;89.40
51617;BME280;37697;52.588;13.394;2023-02-04T06:51:40;102823.75;;;-1.29;89.40
51617;BME280;37697;52.588;13.394;2023-02-04T06:56:43;102825.04;;;-1.29;89.57
51617;BME280;37697;52.588;13.394;2023-02-04T07:01:45;102826.99;;;-1.29;89.41
51617;BME280;37697;52.588;13.394;2023-02-04T07:06:48;102832.30;;;-1.28;89.42
51617;BME280;37697;52.588;13.394;2023-02-04T07:11:51;102836.23;;;-1.27;89.33
51617;BME280;37697;52.588;13.394;2023-02-04T07:16:55;102838.00;;;-1.30;89.28
51617;BME280;37697;52.588;13.394;2023-02-04T07:22:00;102842.42;;;-1.33;89.14
51617;BME280;37697;52.588;13.394;2023-02-04T07:27:02;102856.48;;;-1.31;89.21
51617;BME280;37697;52.588;13.394;2023-02-04T07:32:05;102872.46;;;-1.29;89.37
51617;BME280;37697;52.588;13.394;2023-02-04T07:37:08;102879.60;;;-1.27;89.42
51617;BME280;37697;52.588;13.394;2023-02-04T07:42:11;102892.04;;;-1.21;89.61
51617;BME280;37697;52.588;13.394;2023-02-04T07:47:13;102901.98;;;-1.11;90.03
51617;BME280;37697;52.588;13.394;2023-02-04T07:52:16;102911.83;;;-1.01;90.28
51617;BME280;37697;52.588;13.394;2023-02-04T07:57:19;102921.73;;;-0.91;90.53
51617;BME280;37697;52.588;13.394;2023-02-04T08:02:22;102929.55;;;-0.80;90.97
51617;BME280;37697;52.588;13.394;2023-02-04T08:07:25;102936.95;;;-0.67;91.28
51617;BME280;37697;52.588;13.394;2023-02-04T08:12:28;102945.90;;;-0.56;91.48
51617;BME280;37697;52.588;13.394;2023-02-04T08:17:30;102956.34;;;-0.45;91.60
51617;BME280;37697;52.588;13.394;2023-02-04T08:22:33;102961.91;;;-0.33;91.57
51617;BME280;37697;52.588;13.394;2023-02-04T08:27:37;102965.95;;;-0.20;91.63
51617;BME280;37697;52.588;13.394;2023-02-04T08:32:40;102979.58;;;-0.08;91.78
51617;BME280;37697;52.588;13.394;2023-02-04T08:37:42;102979.92;;;0.02;91.67
51617;BME280;37697;52.588;13.394;2023-02-04T08:42:45;102982.77;;;0.13;91.83
51617;BME280;37697;52.588;13.394;2023-02-04T08:47:48;102984.55;;;0.24;91.59
51617;BME280;37697;52.588;13.394;2023-02-04T08:52:50;102985.75;;;0.34;91.42
51617;BME280;37697;52.588;13.394;2023-02-04T08:57:53;102989.80;;;0.46;91.51
51617;BME280;37697;52.588;13.394;2023-02-04T09:02:55;102996.16;;;0.58;91.42
51617;BME280;37697;52.588;13.394;2023-02-04T09:07:58;103007.20;;;0.67;91.04
51617;BME280;37697;52.588;13.394;2023-02-04T09:13:01;103007.23;;;0.79;91.15
51617;BME280;37697;52.588;13.394;2023-02-04T09:18:04;103016.36;;;0.92;90.96
51617;BME280;37697;52.588;13.394;2023-02-04T09:23:16;103021.41;;;1.10;91.19
51617;BME280;37697;52.588;13.394;2023-02-04T09:28:19;103032.75;;;1.27;90.71
51617;BME280;37697;52.588;13.394;2023-02-04T09:33:21;103043.06;;;1.47;90.28
51617;BME280;37697;52.588;13.394;2023-02-04T09:38:25;103056.73;;;1.79;91.26
51617;BME280;37697;52.588;13.394;2023-02-04T09:43:33;103060.66;;;2.11;90.69
51617;BME280;37697;52.588;13.394;2023-02-04T09:48:37;103067.89;;;2.30;89.71
51617;BME280;37697;52.588;13.394;2023-02-04T09:53:40;103069.83;;;2.46;88.56
51617;BME280;37697;52.588;13.394;2023-02-04T09:58:43;103064.50;;;2.45;87.90
51617;BME280;37697;52.588;13.394;2023-02-04T10:03:47;103070.30;;;2.75;87.83
51617;BME280;37697;52.588;13.394;2023-02-04T10:08:50;103077.45;;;2.87;86.71
51617;BME280;37697;52.588;13.394;2023-02-04T10:13:54;103080.61;;;3.02;86.11
51617;BME280;37697;52.588;13.394;2023-02-04T10:19:03;103075.10;;;3.18;85.38
51617;BME280;37697;52.588;13.394;2023-02-04T10:24:21;103081.98;;;3.35;85.31
51617;BME280;37697;52.588;13.394;2023-02-04T10:29:28;103086.39;;;3.53;83.71
51617;BME280;37697;52.588;13.394;2023-02-04T10:34:37;103091.10;;;3.82;84.49
51617;BME280;37697;52.588;13.394;2023-02-04T10:39:41;103099.53;;;3.96;83.06
51617;BME280;37697;52.588;13.394;2023-02-04T10:44:46;103100.23;;;3.78;81.46
51617;BME280;37697;52.588;13.394;2023-02-04T10:54:58;103095.69;;;3.48;80.00
51617;BME280;37697;52.588;13.394;2023-02-04T11:00:04;103103.51;;;3.54;80.17
51617;BME280;37697;52.588;13.394;2023-02-04T11:05:14;103100.93;;;3.43;79.82
51617;BME280;37697;52.588;13.394;2023-02-04T11:10:29;103110.62;;;3.19;79.21
51617;BME280;37697;52.588;13.394;2023-02-04T11:15:42;103109.70;;;3.17;79.75
51617;BME280;37697;52.588;13.394;2023-02-04T11:20:47;103104.36;;;3.53;80.32
51617;BME280;37697;52.588;13.394;2023-02-04T11:31:25;103120.70;;;3.12;78.14
51617;BME280;37697;52.588;13.394;2023-02-04T11:36:29;103122.39;;;2.92;78.34
51617;BME280;37697;52.588;13.394;2023-02-04T11:41:32;103133.11;;;3.08;78.31
51617;BME280;37697;52.588;13.394;2023-02-04T11:46:35;103141.70;;;3.13;77.88
51617;BME280;37697;52.588;13.394;2023-02-04T11:51:38;103146.05;;;3.34;77.38
51617;BME280;37697;52.588;13.394;2023-02-04T11:56:40;103148.31;;;3.54;76.00
51617;BME280;37697;52.588;13.394;2023-02-04T12:01:43;103152.52;;;3.37;76.37
51617;BME280;37697;52.588;13.394;2023-02-04T12:06:56;103150.53;;;3.29;76.01
51617;BME280;37697;52.588;13.394;2023-02-04T12:12:03;103149.16;;;3.51;75.93
51617;BME280;37697;52.588;13.394;2023-02-04T12:17:17;103142.35;;;3.65;75.43
51617;BME280;37697;52.588;13.394;2023-02-04T12:22:20;103148.73;;;3.49;75.08
51617;BME280;37697;52.588;13.394;2023-02-04T12:27:22;103156.71;;;3.23;74.59
51617;BME280;37697;52.588;13.394;2023-02-04T12:32:25;103163.52;;;3.08;74.81
51617;BME280;37697;52.588;13.394;2023-02-04T12:37:28;103170.79;;;3.01;74.69
51617;BME280;37697;52.588;13.394;2023-02-04T12:42:31;103176.87;;;2.91;74.23
51617;BME280;37697;52.588;13.394;2023-02-04T12:47:34;103176.02;;;2.78;74.01
51617;BME280;37697;52.588;13.394;2023-02-04T12:52:37;103175.22;;;2.64;74.06
51617;BME280;37697;52.588;13.394;2023-02-04T12:57:40;103172.84;;;2.58;74.14
51617;BME280;37697;52.588;13.394;2023-02-04T13:02:44;103179.34;;;2.49;73.98
51617;BME280;37697;52.588;13.394;2023-02-04T13:07:47;103178.12;;;2.44;74.43
51617;BME280;37697;52.588;13.394;2023-02-04T13:12:50;103176.95;;;2.48;74.51
51617;BME280;37697;52.588;13.394;2023-02-04T13:17:53;103178.95;;;2.48;74.34
51617;BME280;37697;52.588;13.394;2023-02-04T13:22:56;103183.87;;;2.47;73.94
51617;BME280;37697;52.588;13.394;2023-02-04T13:27:59;103183.82;;;2.50;73.89
51617;BME280;37697;52.588;13.394;2023-02-04T13:33:01;103186.67;;;2.77;73.05
51617;BME280;37697;52.588;13.394;2023-02-04T13:38:05;103187.95;;;3.06;72.31
51617;BME280;37697;52.588;13.394;2023-02-04T13:43:11;103187.33;;;3.40;72.23
51617;BME280;37697;52.588;13.394;2023-02-04T13:48:14;103192.66;;;3.51;70.64
51617;BME280;37697;52.588;13.394;2023-02-04T13:53:18;103199.40;;;3.37;71.20
51617;BME280;37697;52.588;13.394;2023-02-04T13:58:20;103204.61;;;3.31;70.76
51617;BME280;37697;52.588;13.394;2023-02-04T14:03:24;103210.89;;;3.11;70.43
51617;BME280;37697;52.588;13.394;2023-02-04T14:08:27;103213.89;;;2.87;70.51
51617;BME280;37697;52.588;13.394;2023-02-04T14:13:30;103218.04;;;2.61;70.17
51617;BME280;37697;52.588;13.394;2023-02-04T14:18:32;103218.33;;;2.36;70.29
51617;BME280;37697;52.588;13.394;2023-02-04T14:23:35;103220.11;;;2.20;70.73
51617;BME280;37697;52.588;13.394;2023-02-04T14:28:38;103223.25;;;2.15;71.31
51617;BME280;37697;52.588;13.394;2023-02-04T14:33:41;103229.79;;;2.21;71.55
51617;BME280;37697;52.588;13.394;2023-02-04T14:38:44;103232.86;;;2.24;71.42
51617;BME280;37697;52.588;13.394;2023-02-04T14:43:47;103235.69;;;2.13;70.83
51617;BME280;37697;52.588;13.394;2023-02-04T14:48:49;103244.46;;;2.01;70.71
51617;BME280;37697;52.588;13.394;2023-02-04T14:53:53;103239.18;;;1.88;70.53
51617;BME280;37697;52.588;13.394;2023-02-04T14:58:56;103239.91;;;1.80;70.35
51617;BME280;37697;52.588;13.394;2023-02-04T15:03:59;103246.35;;;1.78;70.80
51617;BME280;37697;52.588;13.394;2023-02-04T15:09:02;103254.30;;;1.81;70.60
51617;BME280;37697;52.588;13.394;2023-02-04T15:14:05;103264.25;;;1.77;69.96
51617;BME280;37697;52.588;13.394;2023-02-04T15:19:08;103269.61;;;1.73;69.88
51617;BME280;37697;52.588;13.394;2023-02-04T15:24:11;103280.54;;;1.66;69.46
51617;BME280;37697;52.588;13.394;2023-02-04T15:29:14;103287.31;;;1.59;69.53
51617;BME280;37697;52.588;13.394;2023-02-04T15:34:17;103291.59;;;1.56;69.52
51617;BME280;37697;52.588;13.394;2023-02-04T15:39:19;103287.89;;;1.51;69.60
51617;BME280;37697;52.588;13.394;2023-02-04T15:44:22;103289.12;;;1.44;69.41
51617;BME280;37697;52.588;13.394;2023-02-04T15:49:25;103286.00;;;1.38;69.89
51617;BME280;37697;52.588;13.394;2023-02-04T15:54:28;103292.69;;;1.32;69.95
51617;BME280;37697;52.588;13.394;2023-02-04T15:59:31;103299.55;;;1.20;69.82
51617;BME280;37697;52.588;13.394;2023-02-04T16:04:33;103307.58;;;1.06;69.31
51617;BME280;37697;52.588;13.394;2023-02-04T16:09:36;103309.26;;;0.97;69.58
51617;BME280;37697;52.588;13.394;2023-02-04T16:14:38;103318.84;;;0.92;69.57
51617;BME280;37697;52.588;13.394;2023-02-04T16:19:41;103314.16;;;0.82;69.54
51617;BME280;37697;52.588;13.394;2023-02-04T16:24:44;103315.00;;;0.73;69.59
51617;BME280;37697;52.588;13.394;2023-02-04T16:29:47;103318.08;;;0.67;69.71
51617;BME280;37697;52.588;13.394;2023-02-04T16:34:50;103321.90;;;0.57;69.80
51617;BME280;37697;52.588;13.394;2023-02-04T16:39:54;103320.54;;;0.47;69.73
51617;BME280;37697;52.588;13.394;2023-02-04T16:44:57;103320.04;;;0.36;69.96
51617;BME280;37697;52.588;13.394;2023-02-04T16:49:59;103325.17;;;0.26;69.84
51617;BME280;37697;52.588;13.394;2023-02-04T16:55:02;103322.40;;;0.17;70.00
51617;BME280;37697;52.588;13.394;2023-02-04T17:00:06;103325.22;;;0.08;70.24
51617;BME280;37697;52.588;13.394;2023-02-04T17:05:08;103329.42;;;-0.03;70.45
51617;BME280;37697;52.588;13.394;2023-02-04T17:10:11;103340.73;;;-0.12;70.76
51617;BME280;37697;52.588;13.394;2023-02-04T17:15:14;103351.55;;;-0.22;70.89
51617;BME280;37697;52.588;13.394;2023-02-04T17:20:17;103355.29;;;-0.37;71.30
51617;BME280;37697;52.588;13.394;2023-02-04T17:25:20;103354.11;;;-0.49;71.55
51617;BME280;37697;52.588;13.394;2023-02-04T17:30:23;103357.53;;;-0.57;71.65
51617;BME280;37697;52.588;13.394;2023-02-04T17:35:26;103359.12;;;-0.65;71.78
51617;BME280;37697;52.588;13.394;2023-02-04T17:40:28;103365.34;;;-0.73;72.16
51617;BME280;37697;52.588;13.394;2023-02-04T17:45:32;103374.30;;;-0.83;72.34
51617;BME280;37697;52.588;13.394;2023-02-04T17:50:37;103379.05;;;-0.94;72.48
51617;BME280;37697;52.588;13.394;2023-02-04T17:55:41;103378.27;;;-1.02;72.77
51617;BME280;37697;52.588;13.394;2023-02-04T18:00:46;103379.00;;;-1.10;72.86
51617;BME280;37697;52.588;13.394;2023-02-04T18:05:52;103372.96;;;-1.20;72.84
51617;BME280;37697;52.588;13.394;2023-02-04T18:10:55;103377.16;;;-1.31;72.83
51617;BME280;37697;52.588;13.394;2023-02-04T18:16:00;103382.73;;;-1.37;73.25
51617;BME280;37697;52.588;13.394;2023-02-04T18:26:22;103377.17;;;-1.50;73.22
51617;BME280;37697;52.588;13.394;2023-02-04T18:31:32;103380.80;;;-1.61;73.16
51617;BME280;37697;52.588;13.394;2023-02-04T18:36:35;103391.59;;;-1.69;73.14
51617;BME280;37697;52.588;13.394;2023-02-04T18:41:41;103398.95;;;-1.78;73.21
51617;BME280;37697;52.588;13.394;2023-02-04T18:46:46;103406.89;;;-1.82;73.11
51617;BME280;37697;52.588;13.394;2023-02-04T18:51:50;103414.52;;;-1.88;72.98
51617;BME280;37697;52.588;13.394;2023-02-04T18:56:59;103413.26;;;-1.93;73.12
51617;BME280;37697;52.588;13.394;2023-02-04T19:02:34;103417.43;;;-1.95;73.10
51617;BME280;37697;52.588;13.394;2023-02-04T19:07:38;103421.56;;;-1.98;73.12
51617;BME280;37697;52.588;13.394;2023-02-04T19:12:40;103429.05;;;-2.02;73.16
51617;BME280;37697;52.588;13.394;2023-02-04T19:17:43;103423.34;;;-2.06;73.31
51617;BME280;37697;52.588;13.394;2023-02-04T19:22:54;103424.15;;;-2.12;73.08
51617;BME280;37697;52.588;13.394;2023-02-04T19:28:21;103427.20;;;-2.17;73.03
51617;BME280;37697;52.588;13.394;2023-02-04T19:33:37;103434.41;;;-2.25;72.95
51617;BME280;37697;52.588;13.394;2023-02-04T19:38:45;103442.35;;;-2.31;73.15
51617;BME280;37697;52.588;13.394;2023-02-04T19:43:49;103447.58;;;-2.34;73.23
51617;BME280;37697;52.588;13.394;2023-02-04T19:48:52;103451.61;;;-2.41;73.24
51617;BME280;37697;52.588;13.394;2023-02-04T19:54:08;103460.65;;;-2.44;73.73
51617;BME280;37697;52.588;13.394;2023-02-04T19:59:17;103454.35;;;-2.46;73.85
51617;BME280;37697;52.588;13.394;2023-02-04T20:04:31;103465.66;;;-2.52;73.56
51617;BME280;37697;52.588;13.394;2023-02-04T20:09:36;103464.59;;;-2.56;73.64
51617;BME280;37697;52.588;13.394;2023-02-04T20:14:49;103458.85;;;-2.59;73.69
51617;BME280;37697;52.588;13.394;2023-02-04T20:19:54;103457.39;;;-2.63;73.67
51617;BME280;37697;52.588;13.394;2023-02-04T20:25:20;103456.35;;;-2.69;73.58
51617;BME280;37697;52.588;13.394;2023-02-04T20:30:29;103461.88;;;-2.72;73.76
51617;BME280;37697;52.588;13.394;2023-02-04T20:40:38;103464.80;;;-2.78;73.82
51617;BME280;37697;52.588;13.394;2023-02-04T20:45:48;103465.11;;;-2.79;73.98
51617;BME280;37697;52.588;13.394;2023-02-04T20:50:52;103472.18;;;-2.82;73.98
51617;BME280;37697;52.588;13.394;2023-02-04T21:01:31;103480.74;;;-2.93;74.23
51617;BME280;37697;52.588;13.394;2023-02-04T21:06:35;103472.30;;;-2.98;74.25
51617;BME280;37697;52.588;13.394;2023-02-04T21:11:38;103470.95;;;-3.07;74.25
51617;BME280;37697;52.588;13.394;2023-02-04T21:16:41;103468.59;;;-3.16;74.25
51617;BME280;37697;52.588;13.394;2023-02-04T21:21:43;103476.55;;;-3.25;74.46
51617;BME280;37697;52.588;13.394;2023-02-04T21:26:46;103480.65;;;-3.34;74.73
51617;BME280;37697;52.588;13.394;2023-02-04T21:31:49;103479.95;;;-3.40;74.83
51617;BME280;37697;52.588;13.394;2023-02-04T21:36:52;103486.53;;;-3.47;74.89
51617;BME280;37697;52.588;13.394;2023-02-04T21:41:55;103495.59;;;-3.55;74.84
51617;BME280;37697;52.588;13.394;2023-02-04T21:47:12;103503.73;;;-3.62;74.90
51617;BME280;37697;52.588;13.394;2023-02-04T21:52:17;103510.58;;;-3.68;75.20
51617;BME280;37697;52.588;13.394;2023-02-04T21:57:19;103513.11;;;-3.74;75.34
51617;BME280;37697;52.588;13.394;2023-02-04T22:02:22;103514.48;;;-3.79;75.23
51617;BME280;37697;52.588;13.394;2023-02-04T22:07:27;103513.52;;;-3.85;75.25
51617;BME280;37697;52.588;13.394;2023-02-04T22:12:29;103511.39;;;-3.91;75.45
51617;BME280;37697;52.588;13.394;2023-02-04T22:17:32;103506.54;;;-3.92;75.77
51617;BME280;37697;52.588;13.394;2023-02-04T22:22:35;103504.20;;;-3.94;75.83
51617;BME280;37697;52.588;13.394;2023-02-04T22:27:38;103501.95;;;-3.95;76.17
51617;BME280;37697;52.588;13.394;2023-02-04T22:32:41;103491.75;;;-3.96;76.11
51617;BME280;37697;52.588;13.394;2023-02-04T22:37:44;103488.73;;;-3.98;76.32
51617;BME280;37697;52.588;13.394;2023-02-04T22:42:46;103494.88;;;-3.99;76.49
51617;BME280;37697;52.588;13.394;2023-02-04T22:47:49;103490.05;;;-3.97;76.59
51617;BME280;37697;52.588;13.394;2023-02-04T22:52:52;103491.95;;;-3.94;76.87
51617;BME280;37697;52.588;13.394;2023-02-04T22:57:54;103492.98;;;-3.93;76.84
51617;BME280;37697;52.588;13.394;2023-02-04T23:02:57;103487.83;;;-3.92;76.86
51617;BME280;37697;52.588;13.394;2023-02-04T23:08:00;103494.96;;;-3.88;77.24
51617;BME280;37697;52.588;13.394;2023-02-04T23:13:02;103491.75;;;-3.86;77.28
51617;BME280;37697;52.588;13.394;2023-02-04T23:18:05;103487.91;;;-3.82;77.05
51617;BME280;37697;52.588;13.394;2023-02-04T23:23:08;103482.77;;;-3.78;77.33
51617;BME280;37697;52.588;13.394;2023-02-04T23:28:19;103483.72;;;-3.77;77.55
51617;BME280;37697;52.588;13.394;2023-02-04T23:33:21;103488.95;;;-3.75;77.70
51617;BME280;37697;52.588;13.394;2023-02-04T23:38:24;103481.19;;;-3.75;77.63
51617;BME280;37697;52.588;13.394;2023-02-04T23:43:27;103479.50;;;-3.76;77.77
51617;BME280;37697;52.588;13.394;2023-02-04T23:48:30;103480.83;;;-3.77;78.00
51617;BME280;37697;52.588;13.394;2023-02-04T23:53:33;103477.02;;;-3.78;77.77
51617;BME280;37697;52.588;13.394;2023-02-04T23:58:35;103475.27;;;-3.81;78.06
